Terminal Aerodrome Forecast
Issued by NWS

Home | Current Version | Previous Version | Text Only | Print | Product List | Glossary On
Versions: 1 2 3 4 5 6 7 8 9 10 11 12 13 14
534
FTPA31 PHFO 101732
TAFHKO
TAF
PHKO 101732Z 1018/1118 08006KT P6SM SKC
     FM101900 21008KT P6SM SCT060
     FM102200 27008KT P6SM SCT060
     FM110500 VRB06KT P6SM SKC
      AMD NOT SKED=

USA.gov is the U.S. government's official web portal to all federal, state and local government web resources and services.